AirNav   Air Wisconsin pilot careers
 
 1209 users online  

P19 Stellar Airpark
Chandler, Arizona, USA

GOING TO CHANDLER?


FAA INFORMATION EFFECTIVE 24 MAY 2018

Location

FAA Identifier: P19
Lat/Long: 33-17-55.9545N / 111-54-55.5725W
33-17.932575N / 111-54.926208W
33.2988762 / -111.9154368
(estimated)
Elevation: 1176.5 ft. / 359 m (estimated)
Variation: 13E (1980)
From city: 3 miles W of CHANDLER, AZ
Time zone: UTC -7 (year round; does not observe DST)
Zip code: 85226

Airport Operations

Airport use: Open to the public
Control tower: no
ARTCC: ALBUQUERQUE CENTER
FSS: PRESCOTT FLIGHT SERVICE STATION
NOTAMs facility: PRC (NOTAM-D service available)
Attendance: UNATNDD
Pattern altitude: 1999.5 ft. MSL
Wind indicator: yes
Segmented circle: no
Lights: DUSK-DAWN. ACTVT MIRL RY 17/35 - CTAF.
Beacon: white-green (lighted land airport)
Operates sunset to sunrise.

Airport Communications

CTAF/UNICOM: 122.975
PHOENIX APPROACH: 123.7
PHOENIX DEPARTURE: 123.7
WX AWOS-3PT at CHD (6 nm E): 128.325 (480-814-9952)
WX ASOS at PHX (9 nm NW): PHONE 602-231-8557
WX AWOS-3 at IWA (13 nm E): 133.5 (480-988-9428)
WX ASOS at FFZ (14 nm NE): 118.25 (480-641-4111)
WX AWOS-3 at A39 (19 nm S): 126.900 (520-568-7704)
WX ASOS at SDL (19 nm N): PHONE 480-483-3049

Nearby radio navigation aids

VOR radial/distance  VOR name  Freq  Var
PXRr149/8.5PHOENIX VORTAC115.6012E
IWAr256/13.2WILLIE VORTAC113.3013E
TFDr347/24.8STANFIELD VORTAC114.8012E

 
NDB name  Hdg/Dist  Freq  Var  ID
CHANDLER278/5.740712ECHD -.-. .... -..

Airport Services

Fuel available: 100LL
FOR FUEL AND TIEDOWN INFORMATION CTC FBO AT (480) 961-9050.
Parking: tiedowns
Airframe service: MINOR
Powerplant service: MINOR
Bulk oxygen: NONE

Runway Information

Runway 17/35

Dimensions: 3914 x 60 ft. / 1193 x 18 m
Surface: asphalt, in good condition
Runway edge lights: medium intensity
RUNWAY 17  RUNWAY 35
Latitude: 33-18.255233N33-17.609917N
Longitude: 111-54.925867W111-54.926550W
Elevation: 1176.5 ft.1172.8 ft.
Traffic pattern: leftleft
Runway heading: 167 magnetic, 180 true347 magnetic, 000 true
Displaced threshold: 365 ft.350 ft.
Markings: basic, in good conditionbasic, in good condition
Visual slope indicator: 2-light PAPI on left (3.25 degrees glide path)2-light PAPI on right (3.25 degrees glide path)
Runway end identifier lights: yesyes
Touchdown point: yes, no lightsyes, no lights
Obstructions: 32 ft. tree, 676 ft. from runway, 20 ft. left of centerline, 21:1 slope to clearnone

Airport Ownership and Management from official FAA records

Ownership: Privately-owned
Owner: STELLAR RUNWAY UTILIZERS ASSN, INC.
4304 WEST MERCURY WAY
CHANDLER, AZ 85226
Phone 480-295-2683
Manager: BOD, STELLAR RUNWAY UTILIZERS ASSN
4304 WEST MERCURY WAY
CHANDLER, AZ 85226-3715
Phone 480-295-2683

Airport Operational Statistics

Aircraft based on the field: 176
Single engine airplanes: 150
Multi engine airplanes: 12
Jet airplanes: 5
Helicopters: 7
Gliders airplanes: 1
Ultralights: 1
    
Aircraft operations: avg 110/day *
80% local general aviation
20% transient general aviation
* for 12-month period ending 31 October 2013

Additional Remarks

BE ALERT TO NUMEROUS NO RADIO AIRCRAFT INVOF AIRPORT.
BIRDS ON OR INVOF ARPT.
PPR REQUIRED FOR AIRCRAFT CERTIFICATED FOR 15,000 GROSS TAKEOFF WEIGHT NOT BASED AT AIRORT.
TRAINING AIRCRAFT TGL PROHIBITED. HELICOPTER TRAINING PROHIBITED.
AVOID OVERFLIGHT OF NOISE SENSITIVE AREAS WEST OF RY 17/35 AND NORTH OF AIRPORT.
COMMERCIAL AND STUDENT TRAINING OPERATIONS BY PERMIT ONLY.
CALM WIND RY 17.
PRACTICE INSTRUMENT APPROACHES IN VFR CONDITIONS NOT AUTHORIZED.
FLOOD IRRIGATION BETWEEN RY AND TWY WITH STANDING WATER UP TO 1 FT DEPTH ON IRREGULAR SCHEDULE.
ALL RUNUPS ON EAST SIDE RUNUP AREAS.

Instrument Procedures

NOTE: All procedures below are presented as PDF files. If you need a reader for these files, you should download the free Adobe Reader.

NOT FOR NAVIGATION. Please procure official charts for flight.
FAA instrument procedures published for use from 24 May 2018 at 0901Z to 21 June 2018 at 0900Z.

 
STARs - Standard Terminal Arrivals
ARLIN FOUR   download (324KB)
BLYTHE FIVE   download (275KB)
SUNSS EIGHT   download (271KB)
 
IAPs - Instrument Approach Procedures
VOR OR GPS-A   download (172KB)
NOTE: Special Take-Off Minimums/Departure Procedures apply   download (113KB)

Other nearby airports with instrument procedures:

KCHD - Chandler Municipal Airport (6 nm E)
KPHX - Phoenix Sky Harbor International Airport (9 nm NW)
KIWA - Phoenix-Mesa Gateway Airport (13 nm E)
KFFZ - Falcon Field Airport (14 nm NE)
KSDL - Scottsdale Airport (19 nm N)
 
Loc | Ops | Rwys | IFR | FBO | Links
Com | Nav | Svcs | Stats | Notes

AirNav Hotels Sweepstakes
 
Area around P19 (Stellar Airpark)
 
Road maps at: MapQuest Bing Google
 
Aerial photo
WARNING: Photo may not be current or correct
Aerial photo of P19 (Stellar Airpark)
Taken in April 2006

Do you have a better or more recent aerial photo of Stellar Airpark that you would like to share? If so, please send us your photo.

 
Sectional chart

 
Airport distance calculator
Flying to Stellar Airpark? Find the distance to fly.

From to P19

Sunrise and sunset
Times for 25-May-2018
 Local
(UTC-7)
 Zulu
(UTC)
Morning civil twilight04:5511:55
Sunrise05:2312:23
Sunset19:2602:26
Evening civil twilight19:5402:54

Current date and time
Zulu (UTC)  25-May-2018 20:37:27
Local (UTC-7)  25-May-2018 13:37:27
 
METAR
KCHD 
5nm E 
251947Z 17007KT 10SM CLR 34/M06 A2993
KPHX 
11nm NW 
251951Z 16009KT 10SM FEW250 36/M06 A2991 RMK AO2 SLP107 T03611056
KIWA 
13nm E 
251947Z 25005KT 180V300 35SM SKC 34/M04 A2995
KFFZ 
14nm NE 
251950Z 19007G15KT 30SM FEW250 34/M03 A2994
KSDL 
19nm N 
251953Z 19010KT 10SM CLR 34/M01 A2996 RMK AO2 SLP117 T03391011
TAF
KPHX 
11nm NW 
251728Z 2518/2624 18006KT P6SM SKC FM252100 24008KT P6SM FEW250 TEMPO 2522/2602 26011G16KT FM260900 11004KT P6SM SCT250 FM262000 23012KT P6SM SCT250
KIWA 
13nm E 
251728Z 2518/2618 19006KT P6SM SKC FM251900 23007KT P6SM SKC TEMPO 2522/2602 25009G16KT FM260900 13005KT P6SM SCT250
KSDL 
19nm N 
251728Z 2518/2618 17007KT P6SM SKC FM252100 24008KT P6SM SKC FM260500 VRB04KT P6SM SCT250
NOTAMs
Click for the latest NOTAMs
NOTAMs are issued by the DoD/FAA and will open in a separate window not controlled by AirNav.

 

 
 

FBO, Fuel Providers, and Aircraft Ground Support

  
 Business Name 
 
 Contact 
 
 Services / Description 
 
Fuel Prices
 
Comments
  
Stellar Air 480-961-9050 Aviation fuel, Aircraft parking (ramp or tiedown), Restrooms, Other business

More info about Stellar Air
EPIC
100LL
SS $4.97 
 Updated 21-May-2018
 
   write
SS=Self service
Update Fuel Prices
 

Would you like to see your business listed on this page?

 If your business provides an interesting product or service to pilots, flight crews, aircraft, or users of the Stellar Airpark, you should consider listing it here.  To start the listing process, click on the button below
 
Add a business
 

Other Pages about Stellar Airpark

www.stellarairpark.org
 
Update a link
 
Copyright © AirNav, LLC. All rights reserved. Privacy Policy  Contact